sensor_id;sensor_type;location;lat;lon;timestamp;P1;durP1;ratioP1;P2;durP2;ratioP2
31618;SDS011;18230;51.502;7.108;2024-03-08T00:04:37;33.97;;;19.75;;
31618;SDS011;18230;51.502;7.108;2024-03-08T00:09:38;35.53;;;20.38;;
31618;SDS011;18230;51.502;7.108;2024-03-08T00:14:39;35.72;;;20.02;;
31618;SDS011;18230;51.502;7.108;2024-03-08T00:19:39;32.95;;;19.75;;
31618;SDS011;18230;51.502;7.108;2024-03-08T00:24:41;31.67;;;20.02;;
31618;SDS011;18230;51.502;7.108;2024-03-08T00:29:42;35.25;;;20.95;;
31618;SDS011;18230;51.502;7.108;2024-03-08T00:34:42;33.75;;;21.08;;
31618;SDS011;18230;51.502;7.108;2024-03-08T00:39:43;33.65;;;20.58;;
31618;SDS011;18230;51.502;7.108;2024-03-08T00:44:44;38.28;;;22.27;;
31618;SDS011;18230;51.502;7.108;2024-03-08T00:49:45;36.58;;;22.42;;
31618;SDS011;18230;51.502;7.108;2024-03-08T00:54:46;37.58;;;22.30;;
31618;SDS011;18230;51.502;7.108;2024-03-08T00:59:47;38.70;;;21.98;;
31618;SDS011;18230;51.502;7.108;2024-03-08T01:04:48;40.28;;;22.15;;
31618;SDS011;18230;51.502;7.108;2024-03-08T01:09:49;37.33;;;21.67;;
31618;SDS011;18230;51.502;7.108;2024-03-08T01:14:49;38.40;;;23.15;;
31618;SDS011;18230;51.502;7.108;2024-03-08T01:19:50;40.17;;;21.88;;
31618;SDS011;18230;51.502;7.108;2024-03-08T01:24:50;38.33;;;23.40;;
31618;SDS011;18230;51.502;7.108;2024-03-08T01:29:51;38.65;;;22.55;;
31618;SDS011;18230;51.502;7.108;2024-03-08T01:34:52;36.85;;;23.05;;
31618;SDS011;18230;51.502;7.108;2024-03-08T01:39:52;45.72;;;24.60;;
31618;SDS011;18230;51.502;7.108;2024-03-08T01:44:53;40.28;;;23.40;;
31618;SDS011;18230;51.502;7.108;2024-03-08T01:49:54;45.05;;;22.60;;
31618;SDS011;18230;51.502;7.108;2024-03-08T01:54:55;39.63;;;23.10;;
31618;SDS011;18230;51.502;7.108;2024-03-08T01:59:56;41.42;;;24.42;;
31618;SDS011;18230;51.502;7.108;2024-03-08T02:04:57;40.83;;;23.63;;
31618;SDS011;18230;51.502;7.108;2024-03-08T02:09:57;41.63;;;24.05;;
31618;SDS011;18230;51.502;7.108;2024-03-08T02:14:58;36.95;;;21.52;;
31618;SDS011;18230;51.502;7.108;2024-03-08T02:19:59;40.13;;;23.83;;
31618;SDS011;18230;51.502;7.108;2024-03-08T02:25:04;40.08;;;23.10;;
31618;SDS011;18230;51.502;7.108;2024-03-08T02:30:06;41.53;;;24.75;;
31618;SDS011;18230;51.502;7.108;2024-03-08T02:35:06;40.72;;;23.77;;
31618;SDS011;18230;51.502;7.108;2024-03-08T02:40:07;40.72;;;25.23;;
31618;SDS011;18230;51.502;7.108;2024-03-08T02:45:08;41.00;;;23.38;;
31618;SDS011;18230;51.502;7.108;2024-03-08T02:50:12;41.88;;;23.90;;
31618;SDS011;18230;51.502;7.108;2024-03-08T02:55:16;42.78;;;23.83;;
31618;SDS011;18230;51.502;7.108;2024-03-08T03:00:16;40.00;;;24.48;;
31618;SDS011;18230;51.502;7.108;2024-03-08T03:05:19;41.45;;;23.98;;
31618;SDS011;18230;51.502;7.108;2024-03-08T03:10:20;43.85;;;24.90;;
31618;SDS011;18230;51.502;7.108;2024-03-08T03:15:21;42.75;;;24.65;;
31618;SDS011;18230;51.502;7.108;2024-03-08T03:20:22;48.72;;;24.92;;
31618;SDS011;18230;51.502;7.108;2024-03-08T03:25:26;49.70;;;26.67;;
31618;SDS011;18230;51.502;7.108;2024-03-08T03:30:32;46.28;;;23.88;;
31618;SDS011;18230;51.502;7.108;2024-03-08T03:35:33;42.67;;;25.27;;
31618;SDS011;18230;51.502;7.108;2024-03-08T03:40:34;42.83;;;25.17;;
31618;SDS011;18230;51.502;7.108;2024-03-08T03:45:35;45.92;;;25.40;;
31618;SDS011;18230;51.502;7.108;2024-03-08T03:50:35;44.45;;;25.63;;
31618;SDS011;18230;51.502;7.108;2024-03-08T03:55:36;51.47;;;26.83;;
31618;SDS011;18230;51.502;7.108;2024-03-08T04:00:38;48.47;;;26.85;;
31618;SDS011;18230;51.502;7.108;2024-03-08T04:05:39;49.00;;;26.42;;
31618;SDS011;18230;51.502;7.108;2024-03-08T04:10:40;49.90;;;27.02;;
31618;SDS011;18230;51.502;7.108;2024-03-08T04:15:43;50.58;;;27.65;;
31618;SDS011;18230;51.502;7.108;2024-03-08T04:20:44;46.42;;;27.23;;
31618;SDS011;18230;51.502;7.108;2024-03-08T04:25:45;48.70;;;26.75;;
31618;SDS011;18230;51.502;7.108;2024-03-08T04:30:46;54.15;;;27.27;;
31618;SDS011;18230;51.502;7.108;2024-03-08T04:35:46;42.75;;;24.42;;
31618;SDS011;18230;51.502;7.108;2024-03-08T04:40:48;49.88;;;27.58;;
31618;SDS011;18230;51.502;7.108;2024-03-08T04:45:49;49.67;;;27.35;;
31618;SDS011;18230;51.502;7.108;2024-03-08T04:50:50;49.25;;;27.63;;
31618;SDS011;18230;51.502;7.108;2024-03-08T04:55:50;51.13;;;27.45;;
31618;SDS011;18230;51.502;7.108;2024-03-08T05:00:51;52.38;;;28.10;;
31618;SDS011;18230;51.502;7.108;2024-03-08T05:05:52;50.40;;;28.20;;
31618;SDS011;18230;51.502;7.108;2024-03-08T05:10:53;50.53;;;28.70;;
31618;SDS011;18230;51.502;7.108;2024-03-08T05:15:54;55.10;;;28.95;;
31618;SDS011;18230;51.502;7.108;2024-03-08T05:20:58;52.15;;;28.67;;
31618;SDS011;18230;51.502;7.108;2024-03-08T05:25:59;51.58;;;28.77;;
31618;SDS011;18230;51.502;7.108;2024-03-08T05:30:59;58.53;;;29.98;;
31618;SDS011;18230;51.502;7.108;2024-03-08T05:36:00;55.08;;;29.23;;
31618;SDS011;18230;51.502;7.108;2024-03-08T05:41:02;56.45;;;29.75;;
31618;SDS011;18230;51.502;7.108;2024-03-08T05:46:02;58.30;;;29.92;;
31618;SDS011;18230;51.502;7.108;2024-03-08T05:51:04;56.58;;;30.58;;
31618;SDS011;18230;51.502;7.108;2024-03-08T05:56:05;62.65;;;30.73;;
31618;SDS011;18230;51.502;7.108;2024-03-08T06:01:06;52.05;;;29.70;;
31618;SDS011;18230;51.502;7.108;2024-03-08T06:06:07;53.63;;;28.88;;
31618;SDS011;18230;51.502;7.108;2024-03-08T06:11:08;52.00;;;28.52;;
31618;SDS011;18230;51.502;7.108;2024-03-08T06:16:09;52.67;;;29.33;;
31618;SDS011;18230;51.502;7.108;2024-03-08T06:21:11;48.88;;;28.30;;
31618;SDS011;18230;51.502;7.108;2024-03-08T06:26:12;56.35;;;30.83;;
31618;SDS011;18230;51.502;7.108;2024-03-08T06:31:12;47.28;;;27.58;;
31618;SDS011;18230;51.502;7.108;2024-03-08T06:36:18;53.92;;;28.08;;
31618;SDS011;18230;51.502;7.108;2024-03-08T06:41:21;52.03;;;28.30;;
31618;SDS011;18230;51.502;7.108;2024-03-08T06:46:22;57.45;;;29.85;;
31618;SDS011;18230;51.502;7.108;2024-03-08T06:51:24;57.58;;;29.67;;
31618;SDS011;18230;51.502;7.108;2024-03-08T06:56:24;54.83;;;28.50;;
31618;SDS011;18230;51.502;7.108;2024-03-08T07:01:25;48.20;;;28.10;;
31618;SDS011;18230;51.502;7.108;2024-03-08T07:06:26;53.92;;;29.42;;
31618;SDS011;18230;51.502;7.108;2024-03-08T07:11:26;58.22;;;30.77;;
31618;SDS011;18230;51.502;7.108;2024-03-08T07:16:29;51.97;;;28.88;;
31618;SDS011;18230;51.502;7.108;2024-03-08T07:21:30;47.47;;;28.15;;
31618;SDS011;18230;51.502;7.108;2024-03-08T07:26:31;54.42;;;28.50;;
31618;SDS011;18230;51.502;7.108;2024-03-08T07:31:31;46.78;;;27.63;;
31618;SDS011;18230;51.502;7.108;2024-03-08T07:36:50;53.85;;;29.48;;
31618;SDS011;18230;51.502;7.108;2024-03-08T07:41:52;57.83;;;28.75;;
31618;SDS011;18230;51.502;7.108;2024-03-08T07:46:52;52.10;;;28.73;;
31618;SDS011;18230;51.502;7.108;2024-03-08T07:51:53;48.25;;;28.58;;
31618;SDS011;18230;51.502;7.108;2024-03-08T07:56:55;49.88;;;28.08;;
31618;SDS011;18230;51.502;7.108;2024-03-08T08:01:56;52.05;;;27.80;;
31618;SDS011;18230;51.502;7.108;2024-03-08T08:06:58;46.97;;;27.10;;
31618;SDS011;18230;51.502;7.108;2024-03-08T08:11:59;50.80;;;28.08;;
31618;SDS011;18230;51.502;7.108;2024-03-08T08:17:01;44.00;;;26.45;;
31618;SDS011;18230;51.502;7.108;2024-03-08T08:22:04;44.75;;;26.10;;
31618;SDS011;18230;51.502;7.108;2024-03-08T08:27:04;45.00;;;27.38;;
31618;SDS011;18230;51.502;7.108;2024-03-08T08:32:05;47.50;;;26.38;;
31618;SDS011;18230;51.502;7.108;2024-03-08T08:37:06;42.38;;;24.25;;
31618;SDS011;18230;51.502;7.108;2024-03-08T08:42:10;49.78;;;25.20;;
31618;SDS011;18230;51.502;7.108;2024-03-08T08:47:11;45.78;;;26.48;;
31618;SDS011;18230;51.502;7.108;2024-03-08T08:52:13;42.72;;;26.08;;
31618;SDS011;18230;51.502;7.108;2024-03-08T08:57:15;39.40;;;24.05;;
31618;SDS011;18230;51.502;7.108;2024-03-08T09:02:16;45.55;;;25.35;;
31618;SDS011;18230;51.502;7.108;2024-03-08T09:07:16;50.55;;;25.23;;
31618;SDS011;18230;51.502;7.108;2024-03-08T09:12:18;45.10;;;25.25;;
31618;SDS011;18230;51.502;7.108;2024-03-08T09:17:19;43.35;;;24.13;;
31618;SDS011;18230;51.502;7.108;2024-03-08T09:22:20;41.13;;;24.35;;
31618;SDS011;18230;51.502;7.108;2024-03-08T09:27:21;48.60;;;24.77;;
31618;SDS011;18230;51.502;7.108;2024-03-08T09:32:21;41.55;;;24.23;;
31618;SDS011;18230;51.502;7.108;2024-03-08T09:37:22;51.95;;;29.08;;
31618;SDS011;18230;51.502;7.108;2024-03-08T09:42:23;63.40;;;38.72;;
31618;SDS011;18230;51.502;7.108;2024-03-08T09:47:24;49.63;;;28.25;;
31618;SDS011;18230;51.502;7.108;2024-03-08T09:52:33;42.47;;;24.83;;
31618;SDS011;18230;51.502;7.108;2024-03-08T09:57:34;41.67;;;22.65;;
31618;SDS011;18230;51.502;7.108;2024-03-08T10:02:37;45.75;;;24.42;;
31618;SDS011;18230;51.502;7.108;2024-03-08T10:07:37;40.95;;;23.90;;
31618;SDS011;18230;51.502;7.108;2024-03-08T10:12:38;43.10;;;25.50;;
31618;SDS011;18230;51.502;7.108;2024-03-08T10:17:39;41.85;;;25.08;;
31618;SDS011;18230;51.502;7.108;2024-03-08T10:22:40;37.42;;;24.35;;
31618;SDS011;18230;51.502;7.108;2024-03-08T10:27:44;40.95;;;24.58;;
31618;SDS011;18230;51.502;7.108;2024-03-08T10:32:45;40.35;;;24.13;;
31618;SDS011;18230;51.502;7.108;2024-03-08T10:37:47;40.78;;;25.23;;
31618;SDS011;18230;51.502;7.108;2024-03-08T10:42:53;43.83;;;25.55;;
31618;SDS011;18230;51.502;7.108;2024-03-08T10:48:03;47.45;;;25.50;;
31618;SDS011;18230;51.502;7.108;2024-03-08T10:53:06;39.60;;;25.35;;
31618;SDS011;18230;51.502;7.108;2024-03-08T10:58:06;44.33;;;25.65;;
31618;SDS011;18230;51.502;7.108;2024-03-08T11:03:07;53.10;;;27.02;;
31618;SDS011;18230;51.502;7.108;2024-03-08T11:08:40;44.80;;;24.77;;
31618;SDS011;18230;51.502;7.108;2024-03-08T11:13:41;40.10;;;25.00;;
31618;SDS011;18230;51.502;7.108;2024-03-08T11:18:43;39.03;;;24.10;;
31618;SDS011;18230;51.502;7.108;2024-03-08T11:23:46;38.08;;;24.40;;
31618;SDS011;18230;51.502;7.108;2024-03-08T11:29:48;43.03;;;24.65;;
31618;SDS011;18230;51.502;7.108;2024-03-08T11:34:31;46.10;;;24.90;;
31618;SDS011;18230;51.502;7.108;2024-03-08T11:39:33;38.85;;;23.83;;
31618;SDS011;18230;51.502;7.108;2024-03-08T11:44:34;40.10;;;23.38;;
31618;SDS011;18230;51.502;7.108;2024-03-08T11:49:36;38.60;;;23.73;;
31618;SDS011;18230;51.502;7.108;2024-03-08T11:54:37;37.20;;;22.90;;
31618;SDS011;18230;51.502;7.108;2024-03-08T11:59:39;33.83;;;22.67;;
31618;SDS011;18230;51.502;7.108;2024-03-08T12:04:39;37.38;;;22.50;;
31618;SDS011;18230;51.502;7.108;2024-03-08T12:09:41;39.00;;;22.08;;
31618;SDS011;18230;51.502;7.108;2024-03-08T12:14:46;33.22;;;21.90;;
31618;SDS011;18230;51.502;7.108;2024-03-08T12:19:47;37.30;;;21.20;;
31618;SDS011;18230;51.502;7.108;2024-03-08T12:25:02;37.60;;;22.08;;
31618;SDS011;18230;51.502;7.108;2024-03-08T12:30:16;30.13;;;20.20;;
31618;SDS011;18230;51.502;7.108;2024-03-08T12:35:19;33.38;;;20.17;;
31618;SDS011;18230;51.502;7.108;2024-03-08T12:40:29;32.53;;;20.10;;
31618;SDS011;18230;51.502;7.108;2024-03-08T12:45:41;31.83;;;19.25;;
31618;SDS011;18230;51.502;7.108;2024-03-08T12:50:42;28.83;;;18.95;;
31618;SDS011;18230;51.502;7.108;2024-03-08T12:55:47;31.02;;;17.10;;
31618;SDS011;18230;51.502;7.108;2024-03-08T13:00:48;23.30;;;14.68;;
31618;SDS011;18230;51.502;7.108;2024-03-08T13:05:49;18.92;;;12.75;;
31618;SDS011;18230;51.502;7.108;2024-03-08T13:10:50;22.08;;;12.18;;
31618;SDS011;18230;51.502;7.108;2024-03-08T13:15:51;22.23;;;12.10;;
31618;SDS011;18230;51.502;7.108;2024-03-08T13:20:53;18.83;;;11.75;;
31618;SDS011;18230;51.502;7.108;2024-03-08T13:25:54;15.88;;;11.02;;
31618;SDS011;18230;51.502;7.108;2024-03-08T13:30:57;17.50;;;10.73;;
31618;SDS011;18230;51.502;7.108;2024-03-08T13:35:58;18.00;;;11.40;;
31618;SDS011;18230;51.502;7.108;2024-03-08T13:41:01;17.15;;;10.90;;
31618;SDS011;18230;51.502;7.108;2024-03-08T13:46:03;15.98;;;10.90;;
31618;SDS011;18230;51.502;7.108;2024-03-08T13:51:04;20.70;;;11.18;;
31618;SDS011;18230;51.502;7.108;2024-03-08T13:56:16;21.05;;;11.65;;
31618;SDS011;18230;51.502;7.108;2024-03-08T14:01:17;16.60;;;11.68;;
31618;SDS011;18230;51.502;7.108;2024-03-08T14:06:18;19.25;;;11.18;;
31618;SDS011;18230;51.502;7.108;2024-03-08T14:11:18;20.40;;;12.60;;
31618;SDS011;18230;51.502;7.108;2024-03-08T14:16:19;27.45;;;14.02;;
31618;SDS011;18230;51.502;7.108;2024-03-08T14:21:19;25.92;;;15.65;;
31618;SDS011;18230;51.502;7.108;2024-03-08T14:26:22;25.33;;;15.35;;
31618;SDS011;18230;51.502;7.108;2024-03-08T14:31:22;28.25;;;16.98;;
31618;SDS011;18230;51.502;7.108;2024-03-08T14:36:28;24.27;;;14.88;;
31618;SDS011;18230;51.502;7.108;2024-03-08T14:41:31;20.98;;;13.02;;
31618;SDS011;18230;51.502;7.108;2024-03-08T14:46:32;20.92;;;13.63;;
31618;SDS011;18230;51.502;7.108;2024-03-08T14:51:33;24.48;;;13.00;;
31618;SDS011;18230;51.502;7.108;2024-03-08T14:56:35;23.70;;;13.02;;
31618;SDS011;18230;51.502;7.108;2024-03-08T15:01:36;24.08;;;13.02;;
31618;SDS011;18230;51.502;7.108;2024-03-08T15:06:43;28.33;;;13.05;;
31618;SDS011;18230;51.502;7.108;2024-03-08T15:11:48;21.50;;;14.13;;
31618;SDS011;18230;51.502;7.108;2024-03-08T15:16:52;20.15;;;13.70;;
31618;SDS011;18230;51.502;7.108;2024-03-08T15:21:53;22.38;;;13.32;;
31618;SDS011;18230;51.502;7.108;2024-03-08T15:26:56;22.45;;;13.80;;
31618;SDS011;18230;51.502;7.108;2024-03-08T15:31:57;22.27;;;13.85;;
31618;SDS011;18230;51.502;7.108;2024-03-08T15:36:58;24.77;;;14.63;;
31618;SDS011;18230;51.502;7.108;2024-03-08T15:42:02;28.52;;;15.23;;
31618;SDS011;18230;51.502;7.108;2024-03-08T15:47:03;26.08;;;15.40;;
31618;SDS011;18230;51.502;7.108;2024-03-08T15:52:04;25.52;;;17.42;;
31618;SDS011;18230;51.502;7.108;2024-03-08T15:57:06;25.63;;;17.52;;
31618;SDS011;18230;51.502;7.108;2024-03-08T16:02:12;24.73;;;15.43;;
31618;SDS011;18230;51.502;7.108;2024-03-08T16:07:13;26.08;;;14.65;;
31618;SDS011;18230;51.502;7.108;2024-03-08T16:12:15;24.27;;;16.27;;
31618;SDS011;18230;51.502;7.108;2024-03-08T16:17:16;24.05;;;15.07;;
31618;SDS011;18230;51.502;7.108;2024-03-08T16:22:17;24.88;;;16.35;;
31618;SDS011;18230;51.502;7.108;2024-03-08T16:27:18;24.40;;;14.93;;
31618;SDS011;18230;51.502;7.108;2024-03-08T16:32:20;21.65;;;14.60;;
31618;SDS011;18230;51.502;7.108;2024-03-08T16:37:21;20.75;;;14.30;;
31618;SDS011;18230;51.502;7.108;2024-03-08T16:42:23;24.85;;;15.43;;
31618;SDS011;18230;51.502;7.108;2024-03-08T16:47:24;27.80;;;16.23;;
31618;SDS011;18230;51.502;7.108;2024-03-08T16:52:24;26.00;;;16.48;;
31618;SDS011;18230;51.502;7.108;2024-03-08T16:57:25;23.42;;;15.30;;
31618;SDS011;18230;51.502;7.108;2024-03-08T17:02:26;23.13;;;14.50;;
31618;SDS011;18230;51.502;7.108;2024-03-08T17:07:27;27.60;;;16.10;;
31618;SDS011;18230;51.502;7.108;2024-03-08T17:12:31;23.25;;;14.32;;
31618;SDS011;18230;51.502;7.108;2024-03-08T17:17:32;25.35;;;15.63;;
31618;SDS011;18230;51.502;7.108;2024-03-08T17:22:33;23.02;;;14.32;;
31618;SDS011;18230;51.502;7.108;2024-03-08T17:27:34;25.38;;;15.02;;
31618;SDS011;18230;51.502;7.108;2024-03-08T17:32:36;23.80;;;15.50;;
31618;SDS011;18230;51.502;7.108;2024-03-08T17:37:38;22.85;;;14.93;;
31618;SDS011;18230;51.502;7.108;2024-03-08T17:42:39;30.77;;;15.38;;
31618;SDS011;18230;51.502;7.108;2024-03-08T17:47:40;30.08;;;15.15;;
31618;SDS011;18230;51.502;7.108;2024-03-08T17:52:41;28.98;;;15.32;;
31618;SDS011;18230;51.502;7.108;2024-03-08T17:57:46;24.35;;;15.02;;
31618;SDS011;18230;51.502;7.108;2024-03-08T18:02:51;26.13;;;15.57;;
31618;SDS011;18230;51.502;7.108;2024-03-08T18:08:02;24.73;;;15.32;;
31618;SDS011;18230;51.502;7.108;2024-03-08T18:13:04;23.50;;;14.38;;
31618;SDS011;18230;51.502;7.108;2024-03-08T18:18:16;25.75;;;15.32;;
31618;SDS011;18230;51.502;7.108;2024-03-08T18:23:17;26.50;;;15.50;;
31618;SDS011;18230;51.502;7.108;2024-03-08T18:28:21;32.47;;;17.25;;
31618;SDS011;18230;51.502;7.108;2024-03-08T18:33:22;31.75;;;18.45;;
31618;SDS011;18230;51.502;7.108;2024-03-08T18:38:22;33.17;;;19.95;;
31618;SDS011;18230;51.502;7.108;2024-03-08T18:43:23;36.85;;;21.90;;
31618;SDS011;18230;51.502;7.108;2024-03-08T18:48:25;41.45;;;21.50;;
31618;SDS011;18230;51.502;7.108;2024-03-08T18:53:26;41.47;;;19.77;;
31618;SDS011;18230;51.502;7.108;2024-03-08T18:58:28;37.08;;;22.38;;
31618;SDS011;18230;51.502;7.108;2024-03-08T19:03:31;38.95;;;22.70;;
31618;SDS011;18230;51.502;7.108;2024-03-08T19:08:34;40.92;;;22.90;;
31618;SDS011;18230;51.502;7.108;2024-03-08T19:13:36;37.97;;;23.17;;
31618;SDS011;18230;51.502;7.108;2024-03-08T19:18:37;47.30;;;25.98;;
31618;SDS011;18230;51.502;7.108;2024-03-08T19:23:37;46.40;;;26.08;;
31618;SDS011;18230;51.502;7.108;2024-03-08T19:28:38;45.35;;;25.60;;
31618;SDS011;18230;51.502;7.108;2024-03-08T19:33:42;45.88;;;26.33;;
31618;SDS011;18230;51.502;7.108;2024-03-08T19:38:42;45.65;;;26.52;;
31618;SDS011;18230;51.502;7.108;2024-03-08T19:43:43;47.15;;;27.77;;
31618;SDS011;18230;51.502;7.108;2024-03-08T19:48:45;49.90;;;27.77;;
31618;SDS011;18230;51.502;7.108;2024-03-08T19:53:46;51.78;;;27.90;;
31618;SDS011;18230;51.502;7.108;2024-03-08T19:58:49;47.88;;;27.55;;
31618;SDS011;18230;51.502;7.108;2024-03-08T20:03:53;50.58;;;29.92;;
31618;SDS011;18230;51.502;7.108;2024-03-08T20:08:55;48.97;;;27.95;;
31618;SDS011;18230;51.502;7.108;2024-03-08T20:13:58;49.20;;;28.83;;
31618;SDS011;18230;51.502;7.108;2024-03-08T20:18:59;50.08;;;28.58;;
31618;SDS011;18230;51.502;7.108;2024-03-08T20:24:02;50.25;;;29.95;;
31618;SDS011;18230;51.502;7.108;2024-03-08T20:29:02;49.90;;;28.60;;
31618;SDS011;18230;51.502;7.108;2024-03-08T20:34:08;54.08;;;30.73;;
31618;SDS011;18230;51.502;7.108;2024-03-08T20:39:09;53.25;;;30.40;;
31618;SDS011;18230;51.502;7.108;2024-03-08T20:44:10;50.15;;;29.08;;
31618;SDS011;18230;51.502;7.108;2024-03-08T20:49:11;47.60;;;29.13;;
31618;SDS011;18230;51.502;7.108;2024-03-08T20:54:12;55.85;;;31.15;;
31618;SDS011;18230;51.502;7.108;2024-03-08T20:59:15;52.83;;;30.55;;
31618;SDS011;18230;51.502;7.108;2024-03-08T21:04:15;59.45;;;30.42;;
31618;SDS011;18230;51.502;7.108;2024-03-08T21:09:17;60.63;;;31.45;;
31618;SDS011;18230;51.502;7.108;2024-03-08T21:14:17;58.92;;;31.73;;
31618;SDS011;18230;51.502;7.108;2024-03-08T21:19:18;52.70;;;31.02;;
31618;SDS011;18230;51.502;7.108;2024-03-08T21:24:19;55.95;;;30.88;;
31618;SDS011;18230;51.502;7.108;2024-03-08T21:29:20;59.40;;;31.65;;
31618;SDS011;18230;51.502;7.108;2024-03-08T21:34:21;56.35;;;32.58;;
31618;SDS011;18230;51.502;7.108;2024-03-08T21:39:21;57.72;;;31.48;;
31618;SDS011;18230;51.502;7.108;2024-03-08T21:44:27;56.70;;;31.90;;
31618;SDS011;18230;51.502;7.108;2024-03-08T21:49:29;56.65;;;31.98;;
31618;SDS011;18230;51.502;7.108;2024-03-08T21:54:29;54.50;;;30.13;;
31618;SDS011;18230;51.502;7.108;2024-03-08T21:59:30;61.53;;;33.03;;
31618;SDS011;18230;51.502;7.108;2024-03-08T22:04:30;54.00;;;30.88;;
31618;SDS011;18230;51.502;7.108;2024-03-08T22:09:31;60.53;;;32.05;;
31618;SDS011;18230;51.502;7.108;2024-03-08T22:14:32;61.03;;;32.50;;
31618;SDS011;18230;51.502;7.108;2024-03-08T22:19:33;56.13;;;31.10;;
31618;SDS011;18230;51.502;7.108;2024-03-08T22:24:34;58.00;;;31.45;;
31618;SDS011;18230;51.502;7.108;2024-03-08T22:29:34;63.22;;;33.47;;
31618;SDS011;18230;51.502;7.108;2024-03-08T22:34:35;56.92;;;32.88;;
31618;SDS011;18230;51.502;7.108;2024-03-08T22:39:36;55.80;;;30.60;;
31618;SDS011;18230;51.502;7.108;2024-03-08T22:44:37;62.95;;;32.47;;
31618;SDS011;18230;51.502;7.108;2024-03-08T22:49:38;56.45;;;31.88;;
31618;SDS011;18230;51.502;7.108;2024-03-08T22:54:39;58.75;;;32.38;;
31618;SDS011;18230;51.502;7.108;2024-03-08T22:59:40;66.35;;;34.33;;
31618;SDS011;18230;51.502;7.108;2024-03-08T23:04:41;67.65;;;33.60;;
31618;SDS011;18230;51.502;7.108;2024-03-08T23:09:42;60.78;;;33.65;;
31618;SDS011;18230;51.502;7.108;2024-03-08T23:14:43;66.80;;;34.42;;
31618;SDS011;18230;51.502;7.108;2024-03-08T23:19:44;63.50;;;32.30;;
31618;SDS011;18230;51.502;7.108;2024-03-08T23:24:46;57.72;;;32.45;;
31618;SDS011;18230;51.502;7.108;2024-03-08T23:29:47;66.30;;;34.13;;
31618;SDS011;18230;51.502;7.108;2024-03-08T23:34:48;61.78;;;33.95;;
31618;SDS011;18230;51.502;7.108;2024-03-08T23:39:48;65.50;;;33.83;;
31618;SDS011;18230;51.502;7.108;2024-03-08T23:44:49;62.95;;;33.55;;
31618;SDS011;18230;51.502;7.108;2024-03-08T23:49:50;68.03;;;34.58;;
31618;SDS011;18230;51.502;7.108;2024-03-08T23:54:52;64.35;;;32.90;;
31618;SDS011;18230;51.502;7.108;2024-03-08T23:59:53;63.08;;;33.28;;
